createdAt,value
2018-04-25T00:00:36.204Z,99.90
2018-04-25T00:03:02.356Z,99.90
2018-04-25T00:05:28.514Z,99.90
2018-04-25T00:07:54.683Z,99.90
2018-04-25T00:10:20.911Z,99.90
2018-04-25T00:12:47.026Z,99.90
2018-04-25T00:15:13.103Z,99.90
2018-04-25T00:17:39.283Z,99.90
2018-04-25T00:20:06.244Z,99.90
2018-04-25T00:22:32.347Z,99.90
2018-04-25T00:24:58.440Z,99.90
2018-04-25T00:27:24.584Z,99.90
2018-04-25T00:29:50.670Z,99.90
2018-04-25T00:32:16.827Z,99.90
2018-04-25T00:34:43.795Z,99.90
2018-04-25T00:37:10.723Z,99.90
2018-04-25T00:39:36.896Z,99.90
2018-04-25T00:42:03.002Z,99.90
2018-04-25T00:44:29.434Z,99.90
2018-04-25T00:46:56.207Z,99.90
2018-04-25T00:49:23.105Z,99.90
2018-04-25T00:51:49.325Z,99.90
2018-04-25T00:54:15.436Z,99.90
2018-04-25T00:56:41.575Z,99.90
2018-04-25T00:59:07.660Z,99.90
2018-04-25T01:01:33.896Z,99.90
2018-04-25T01:04:00.119Z,99.90
2018-04-25T01:06:27.023Z,99.90
2018-04-25T01:08:53.124Z,99.90
2018-04-25T01:11:19.304Z,99.90
2018-04-25T01:13:45.398Z,99.90
2018-04-25T01:16:11.474Z,99.90
2018-04-25T01:18:37.644Z,99.90
2018-04-25T01:21:03.765Z,99.90
2018-04-25T01:23:29.915Z,99.90
2018-04-25T01:26:03.079Z,99.90
2018-04-25T01:28:29.167Z,99.90
2018-04-25T01:30:59.107Z,99.90
2018-04-25T01:33:25.416Z,99.90
2018-04-25T01:35:57.414Z,99.90
2018-04-25T01:38:26.262Z,99.90
2018-04-25T01:40:52.393Z,99.90
2018-04-25T01:43:19.468Z,99.90
2018-04-25T01:45:49.437Z,99.90
2018-04-25T01:48:27.644Z,99.90
2018-04-25T01:50:57.525Z,99.90
2018-04-25T01:53:35.957Z,99.90
2018-04-25T01:56:14.329Z,99.90
2018-04-25T01:58:52.834Z,99.90
2018-04-25T02:01:18.866Z,99.90
2018-04-25T02:03:53.128Z,99.90
2018-04-25T02:06:19.250Z,99.90
2018-04-25T02:08:45.368Z,99.90
2018-04-25T02:11:11.465Z,99.90
2018-04-25T02:13:37.579Z,99.90
2018-04-25T02:16:03.699Z,99.90
2018-04-25T02:18:33.825Z,99.90
2018-04-25T02:20:59.940Z,99.90
2018-04-25T02:23:26.072Z,99.90
2018-04-25T02:25:54.520Z,99.90
2018-04-25T02:28:21.659Z,99.90
2018-04-25T02:30:47.785Z,99.90
2018-04-25T02:33:15.094Z,99.90
2018-04-25T02:35:42.020Z,99.90
2018-04-25T02:38:08.125Z,99.90
2018-04-25T02:40:34.231Z,99.90
2018-04-25T02:43:01.117Z,99.90
2018-04-25T02:45:27.270Z,99.90
2018-04-25T02:47:53.420Z,99.90
2018-04-25T02:50:19.527Z,99.90
2018-04-25T02:52:45.635Z,99.90
2018-04-25T02:55:12.446Z,99.90
2018-04-25T02:57:38.575Z,99.90
2018-04-25T03:00:04.723Z,99.90
2018-04-25T03:02:30.969Z,99.90
2018-04-25T03:04:57.068Z,99.90
2018-04-25T03:07:23.164Z,99.90
2018-04-25T03:09:51.887Z,99.90
2018-04-25T03:12:17.995Z,99.90
2018-04-25T03:14:45.119Z,99.90
2018-04-25T03:17:11.376Z,99.90
2018-04-25T03:19:38.433Z,99.90
2018-04-25T03:22:04.572Z,99.90
2018-04-25T03:24:30.674Z,99.90
2018-04-25T03:26:56.880Z,99.90
2018-04-25T03:29:26.242Z,99.90
2018-04-25T03:31:52.327Z,99.90
2018-04-25T03:34:18.497Z,99.90
2018-04-25T03:36:45.363Z,99.90
2018-04-25T03:39:11.445Z,99.90
2018-04-25T03:41:37.548Z,99.90
2018-04-25T03:44:03.663Z,99.90
2018-04-25T03:46:30.519Z,99.90
2018-04-25T03:48:56.622Z,99.90
2018-04-25T03:51:22.746Z,99.90
2018-04-25T03:53:48.839Z,99.90
2018-04-25T03:56:15.685Z,99.90
2018-04-25T03:58:42.547Z,99.90
2018-04-25T04:01:09.470Z,99.90
2018-04-25T04:03:35.562Z,99.90
2018-04-25T04:06:01.666Z,99.90
2018-04-25T04:08:28.516Z,99.90
2018-04-25T04:10:54.612Z,99.90
2018-04-25T04:13:20.743Z,99.90
2018-04-25T04:15:46.809Z,99.90
2018-04-25T04:18:12.870Z,99.90
2018-04-25T04:20:38.962Z,99.90
2018-04-25T04:23:05.064Z,99.90
2018-04-25T04:25:31.159Z,99.90
2018-04-25T04:27:57.291Z,99.90
2018-04-25T04:30:23.387Z,99.90
2018-04-25T04:32:49.559Z,99.90
2018-04-25T04:35:15.719Z,99.90
2018-04-25T04:37:41.813Z,99.90
2018-04-25T04:40:07.891Z,99.90
2018-04-25T04:42:34.013Z,99.90
2018-04-25T04:45:00.105Z,99.90
2018-04-25T04:47:26.197Z,99.90
2018-04-25T04:49:52.350Z,99.90
2018-04-25T04:52:18.701Z,99.90
2018-04-25T04:54:44.875Z,99.90
2018-04-25T04:57:11.016Z,99.90
2018-04-25T04:59:37.140Z,99.90
2018-04-25T05:02:03.240Z,99.90
2018-04-25T05:04:29.345Z,99.90
2018-04-25T05:06:55.423Z,99.90
2018-04-25T05:09:22.596Z,99.90
2018-04-25T05:11:48.707Z,99.90
2018-04-25T05:14:14.783Z,99.90
2018-04-25T05:16:40.892Z,99.90
2018-04-25T05:19:07.080Z,99.90
2018-04-25T05:21:33.167Z,99.90
2018-04-25T05:23:59.261Z,99.90
2018-04-25T05:26:25.402Z,99.90
2018-04-25T05:28:51.559Z,99.90
2018-04-25T05:31:17.760Z,99.90
2018-04-25T05:33:43.874Z,99.90
2018-04-25T05:36:10.000Z,99.90
2018-04-25T05:38:36.348Z,99.90
2018-04-25T05:41:02.737Z,99.90
2018-04-25T05:43:28.903Z,99.90
2018-04-25T05:45:55.104Z,99.90
2018-04-25T05:48:21.246Z,99.90
2018-04-25T05:50:47.351Z,99.90
2018-04-25T05:53:13.423Z,99.90
2018-04-25T05:55:39.604Z,99.90
2018-04-25T05:58:05.721Z,99.90
2018-04-25T06:00:32.188Z,99.90
2018-04-25T06:02:58.385Z,99.90
2018-04-25T06:05:24.604Z,99.90
2018-04-25T06:07:51.440Z,99.90
2018-04-25T06:10:17.653Z,99.90
2018-04-25T06:12:43.775Z,99.90
2018-04-25T06:15:10.084Z,99.90
2018-04-25T06:17:36.947Z,99.90
2018-04-25T06:20:03.825Z,99.90
2018-04-25T06:22:29.920Z,99.90
2018-04-25T06:24:56.915Z,99.90
2018-04-25T06:27:23.028Z,99.90
2018-04-25T06:29:49.873Z,99.90
2018-04-25T06:32:16.123Z,99.90
2018-04-25T06:34:43.004Z,99.90
2018-04-25T06:37:09.110Z,99.90
2018-04-25T06:39:35.302Z,99.90
2018-04-25T06:42:01.447Z,99.90
2018-04-25T06:44:27.554Z,99.90
2018-04-25T06:46:53.673Z,99.90
2018-04-25T06:49:19.786Z,99.90
2018-04-25T06:51:45.898Z,99.90
2018-04-25T06:54:11.990Z,99.90
2018-04-25T06:56:40.496Z,99.90
2018-04-25T06:59:06.705Z,99.90
2018-04-25T07:01:32.823Z,99.90
2018-04-25T07:03:58.963Z,99.90
2018-04-25T07:06:25.100Z,99.90
2018-04-25T07:08:51.216Z,99.90
2018-04-25T07:11:17.880Z,99.90
2018-04-25T07:13:44.003Z,99.90
2018-04-25T07:16:10.163Z,99.90
2018-04-25T07:18:36.287Z,99.90
2018-04-25T07:21:02.420Z,99.90
2018-04-25T07:23:28.574Z,99.90
2018-04-25T07:25:54.662Z,99.90
2018-04-25T07:28:21.497Z,99.90
2018-04-25T07:30:47.980Z,99.90
2018-04-25T07:33:14.059Z,96.30
2018-04-25T07:35:40.173Z,96.90
2018-04-25T07:38:06.300Z,98.70
2018-04-25T07:40:32.392Z,99.20
2018-04-25T07:42:58.466Z,99.30
2018-04-25T07:45:24.613Z,97.90
2018-04-25T07:47:50.708Z,95.60
2018-04-25T07:50:17.550Z,96.40
2018-04-25T07:52:43.698Z,96.40
2018-04-25T07:55:09.806Z,94.20
2018-04-25T07:57:36.001Z,95.90
2018-04-25T08:00:02.105Z,95.00
2018-04-25T08:02:28.218Z,94.00
2018-04-25T08:04:55.209Z,95.10
2018-04-25T08:07:21.934Z,95.30
2018-04-25T08:09:48.822Z,92.00
2018-04-25T08:12:27.292Z,91.90
2018-04-25T08:15:06.604Z,89.00
2018-04-25T08:17:45.239Z,89.60
2018-04-25T08:20:23.766Z,85.50
2018-04-25T08:22:49.914Z,85.90
2018-04-25T08:25:16.014Z,84.30
2018-04-25T08:27:42.888Z,80.40
2018-04-25T08:30:09.016Z,80.60
2018-04-25T08:32:35.079Z,80.00
2018-04-25T08:35:01.279Z,82.50
2018-04-25T08:37:28.131Z,81.70
2018-04-25T08:39:54.225Z,81.60
2018-04-25T08:42:20.318Z,80.20
2018-04-25T08:44:46.419Z,80.70
2018-04-25T08:47:12.903Z,79.70
2018-04-25T08:52:07.570Z,73.20
2018-04-25T08:54:33.731Z,73.60
2018-04-25T08:57:00.540Z,70.00
2018-04-25T08:59:26.660Z,67.80
2018-04-25T09:01:52.768Z,69.50
2018-04-25T09:04:18.922Z,68.40
2018-04-25T09:06:46.178Z,68.30
2018-04-25T09:09:12.402Z,68.30
2018-04-25T09:11:38.519Z,64.60
2018-04-25T09:14:04.637Z,64.20
2018-04-25T09:16:30.786Z,62.20
2018-04-25T09:18:56.915Z,59.30
2018-04-25T09:21:23.091Z,57.70
2018-04-25T09:23:49.230Z,56.60
2018-04-25T09:26:15.370Z,53.50
2018-04-25T09:28:41.439Z,53.90
2018-04-25T09:31:08.291Z,52.20
2018-04-25T09:33:35.420Z,50.30
2018-04-25T09:36:01.547Z,50.20
2018-04-25T09:38:27.618Z,52.80
2018-04-25T09:40:53.763Z,53.10
2018-04-25T09:43:20.609Z,50.80
2018-04-25T09:45:46.702Z,50.90
2018-04-25T09:48:12.889Z,49.50
2018-04-25T09:50:38.986Z,52.20
2018-04-25T09:53:05.110Z,53.70
2018-04-25T09:55:31.242Z,51.90
2018-04-25T09:57:57.493Z,49.10
2018-04-25T10:00:29.557Z,47.80
2018-04-25T10:02:55.684Z,48.00
2018-04-25T10:07:50.154Z,49.80
2018-04-25T10:10:16.250Z,53.10
2018-04-25T10:12:43.128Z,53.50
2018-04-25T10:15:09.282Z,53.60
2018-04-25T10:17:36.154Z,53.30
2018-04-25T10:20:02.230Z,53.40
2018-04-25T10:22:29.065Z,51.20
2018-04-25T10:27:23.794Z,50.90
2018-04-25T10:29:49.855Z,45.60
2018-04-25T10:32:16.334Z,48.50
2018-04-25T10:34:43.528Z,50.90
2018-04-25T10:37:09.625Z,51.20
2018-04-25T10:39:35.733Z,51.60
2018-04-25T10:42:02.582Z,52.40
2018-04-25T10:44:29.471Z,54.50
2018-04-25T10:46:55.630Z,54.00
2018-04-25T10:49:21.734Z,53.00
2018-04-25T10:51:48.563Z,52.60
2018-04-25T10:54:14.688Z,52.70
2018-04-25T10:56:41.703Z,51.70
2018-04-25T10:59:07.789Z,52.60
2018-04-25T11:01:33.930Z,53.00
2018-04-25T11:04:00.015Z,54.10
2018-04-25T11:06:26.123Z,61.90
2018-04-25T11:08:53.048Z,83.60
2018-04-25T11:11:19.170Z,83.60
2018-04-25T11:13:45.234Z,83.90
2018-04-25T11:16:11.378Z,98.30
2018-04-25T11:18:37.570Z,99.90
2018-04-25T11:21:03.687Z,99.90
2018-04-25T11:23:29.820Z,99.90
2018-04-25T11:25:56.018Z,99.90
2018-04-25T11:28:22.094Z,99.90
2018-04-25T11:30:48.955Z,99.90
2018-04-25T11:33:15.861Z,99.90
2018-04-25T11:35:41.962Z,99.90
2018-04-25T11:38:08.063Z,99.90
2018-04-25T11:40:34.895Z,99.90
2018-04-25T11:43:01.022Z,99.90
2018-04-25T11:45:27.178Z,99.90
2018-04-25T11:47:53.316Z,99.90
2018-04-25T11:50:19.406Z,99.90
2018-04-25T11:52:45.549Z,99.90
2018-04-25T11:55:11.656Z,99.90
2018-04-25T11:57:38.470Z,98.80
2018-04-25T12:00:04.587Z,98.60
2018-04-25T12:02:30.675Z,99.90
2018-04-25T12:04:56.818Z,99.40
2018-04-25T12:07:22.918Z,83.50
2018-04-25T12:09:49.047Z,84.20
2018-04-25T12:12:15.218Z,79.70
2018-04-25T12:14:41.282Z,73.40
2018-04-25T12:19:35.219Z,69.20
2018-04-25T12:22:01.344Z,60.90
2018-04-25T12:29:23.194Z,60.20
2018-04-25T12:31:49.270Z,59.10
2018-04-25T12:34:16.184Z,57.40
2018-04-25T12:36:42.298Z,57.40
2018-04-25T12:39:08.412Z,54.80
2018-04-25T12:41:35.298Z,59.20
2018-04-25T12:44:02.235Z,62.00
2018-04-25T12:46:28.480Z,62.00
2018-04-25T12:48:54.549Z,60.80
2018-04-25T12:51:20.698Z,60.30
2018-04-25T12:53:46.775Z,59.70
2018-04-25T12:56:13.642Z,56.60
2018-04-25T12:58:39.761Z,56.50
2018-04-25T13:01:06.598Z,57.80
2018-04-25T13:03:32.670Z,57.80
2018-04-25T13:05:58.878Z,58.80
2018-04-25T13:08:24.990Z,56.80
2018-04-25T13:10:51.122Z,53.60
2018-04-25T13:15:45.151Z,51.20
2018-04-25T13:18:11.853Z,49.20
2018-04-25T13:20:37.969Z,47.70
2018-04-25T13:23:04.037Z,48.30
2018-04-25T13:25:30.110Z,48.10
2018-04-25T13:27:56.234Z,49.20
2018-04-25T13:30:22.339Z,48.50
2018-04-25T13:32:48.398Z,46.10
2018-04-25T13:35:14.486Z,42.60
2018-04-25T13:37:40.570Z,42.30
2018-04-25T13:40:06.647Z,43.70
2018-04-25T13:42:32.750Z,43.40
2018-04-25T13:44:58.817Z,42.90
2018-04-25T13:47:24.949Z,42.40
2018-04-25T13:49:51.053Z,42.00
2018-04-25T13:52:17.166Z,40.50
2018-04-25T13:54:43.231Z,41.70
2018-04-25T13:57:09.353Z,40.70
2018-04-25T13:59:35.483Z,41.20
2018-04-25T14:02:01.566Z,40.30
2018-04-25T14:04:27.710Z,41.80
2018-04-25T14:06:53.845Z,43.10
2018-04-25T14:09:20.002Z,42.20
2018-04-25T14:11:46.158Z,42.20
2018-04-25T14:14:12.973Z,42.80
2018-04-25T14:16:39.084Z,42.80
2018-04-25T14:19:05.185Z,41.30
2018-04-25T14:21:31.997Z,41.50
2018-04-25T14:23:58.079Z,41.40
2018-04-25T14:26:24.945Z,42.30
2018-04-25T14:28:51.771Z,44.60
2018-04-25T14:31:17.859Z,44.50
2018-04-25T14:33:43.993Z,44.80
2018-04-25T14:36:10.066Z,44.10
2018-04-25T14:38:51.114Z,43.60
2018-04-25T14:41:17.222Z,44.40
2018-04-25T14:43:43.315Z,45.80
2018-04-25T14:46:09.440Z,43.20
2018-04-25T14:48:35.519Z,44.60
2018-04-25T14:51:01.623Z,43.60
2018-04-25T14:53:27.770Z,44.70
2018-04-25T14:55:53.842Z,46.40
2018-04-25T14:58:19.927Z,46.10
2018-04-25T15:00:46.090Z,43.30
2018-04-25T15:03:12.157Z,44.10
2018-04-25T15:05:38.223Z,45.80
2018-04-25T15:08:04.347Z,47.30
2018-04-25T15:10:31.163Z,47.00
2018-04-25T15:12:57.266Z,46.80
2018-04-25T15:15:23.394Z,46.20
2018-04-25T15:17:49.477Z,46.00
2018-04-25T15:20:15.557Z,46.40
2018-04-25T15:22:42.418Z,45.90
2018-04-25T15:25:08.520Z,46.20
2018-04-25T15:27:34.592Z,46.00
2018-04-25T15:30:00.733Z,46.00
2018-04-25T15:32:26.848Z,45.00
2018-04-25T15:34:52.961Z,45.10
2018-04-25T15:37:19.071Z,45.60
2018-04-25T15:39:45.162Z,44.60
2018-04-25T15:42:11.975Z,46.10
2018-04-25T15:44:38.074Z,45.80
2018-04-25T15:47:04.166Z,45.30
2018-04-25T15:49:30.243Z,44.80
2018-04-25T15:51:57.151Z,45.50
2018-04-25T15:54:23.230Z,45.40
2018-04-25T15:56:50.055Z,47.30
2018-04-25T15:59:16.182Z,47.00
2018-04-25T16:01:42.361Z,46.40
2018-04-25T16:04:08.447Z,46.80
2018-04-25T16:06:34.555Z,47.60
2018-04-25T16:09:00.648Z,47.40
2018-04-25T16:11:26.731Z,48.70
2018-04-25T16:13:52.885Z,47.60
2018-04-25T16:16:18.954Z,47.40
2018-04-25T16:18:45.050Z,49.00
2018-04-25T16:21:11.189Z,48.40
2018-04-25T16:23:37.258Z,49.10
2018-04-25T16:26:03.321Z,48.50
2018-04-25T16:28:29.487Z,48.40
2018-04-25T16:30:55.574Z,49.10
2018-04-25T16:33:21.654Z,49.80
2018-04-25T16:35:48.502Z,50.40
2018-04-25T16:38:15.303Z,51.80
2018-04-25T16:40:41.387Z,51.40
2018-04-25T16:43:07.571Z,52.30
2018-04-25T16:45:33.710Z,51.70
2018-04-25T16:47:59.828Z,51.60
2018-04-25T16:50:26.807Z,52.50
2018-04-25T16:52:52.946Z,53.20
2018-04-25T16:55:19.057Z,54.00
2018-04-25T16:57:49.055Z,54.40
2018-04-25T17:00:15.122Z,54.60
2018-04-25T17:02:41.989Z,53.70
2018-04-25T17:05:08.082Z,54.00
2018-04-25T17:07:34.153Z,54.90
2018-04-25T17:10:01.082Z,55.50
2018-04-25T17:12:27.145Z,55.20
2018-04-25T17:14:54.889Z,55.60
2018-04-25T17:17:20.999Z,55.40
2018-04-25T17:19:47.093Z,56.00
2018-04-25T17:22:13.912Z,56.50
2018-04-25T17:24:40.028Z,56.50
2018-04-25T17:27:06.102Z,57.60
2018-04-25T17:29:32.426Z,57.30
2018-04-25T17:31:58.514Z,58.00
2018-04-25T17:34:24.636Z,58.00
2018-04-25T17:36:51.625Z,60.00
2018-04-25T17:39:17.703Z,60.20
2018-04-25T17:41:43.802Z,58.90
2018-04-25T17:44:09.961Z,61.20
2018-04-25T17:46:36.063Z,60.20
2018-04-25T17:49:02.297Z,60.40
2018-04-25T17:51:29.138Z,60.80
2018-04-25T17:53:56.015Z,61.80
2018-04-25T17:56:22.220Z,61.70
2018-04-25T17:58:48.406Z,61.70
2018-04-25T18:01:14.558Z,61.90
2018-04-25T18:03:40.883Z,61.40
2018-04-25T18:06:07.067Z,62.10
2018-04-25T18:08:33.146Z,63.90
2018-04-25T18:10:59.317Z,63.90
2018-04-25T18:13:25.458Z,65.40
2018-04-25T18:15:58.754Z,64.90
2018-04-25T18:18:24.980Z,66.00
2018-04-25T18:20:52.148Z,66.40
2018-04-25T18:23:18.301Z,67.00
2018-04-25T18:25:44.435Z,67.80
2018-04-25T18:28:11.622Z,67.70
2018-04-25T18:30:37.986Z,67.70
2018-04-25T18:33:04.204Z,68.60
2018-04-25T18:35:30.312Z,69.20
2018-04-25T18:37:56.383Z,70.30
2018-04-25T18:40:22.504Z,68.80
2018-04-25T18:42:48.682Z,69.90
2018-04-25T18:45:14.777Z,68.90
2018-04-25T18:47:40.899Z,69.80
2018-04-25T18:50:06.973Z,70.20
2018-04-25T18:52:33.103Z,70.70
2018-04-25T18:54:59.235Z,71.80
2018-04-25T18:57:25.474Z,71.20
2018-04-25T18:59:51.570Z,72.80
2018-04-25T19:02:18.452Z,72.30
2018-04-25T19:04:44.626Z,72.30
2018-04-25T19:07:10.740Z,74.10
2018-04-25T19:09:36.819Z,75.30
2018-04-25T19:12:02.912Z,75.20
2018-04-25T19:14:29.013Z,74.80
2018-04-25T19:16:55.825Z,75.50
2018-04-25T19:19:22.006Z,75.40
2018-04-25T19:21:48.859Z,76.30
2018-04-25T19:24:15.753Z,76.00
2018-04-25T19:26:41.978Z,75.90
2018-04-25T20:15:58.648Z,75.90
2018-04-25T20:18:24.826Z,87.00
2018-04-25T20:20:50.974Z,85.10
2018-04-25T20:23:17.062Z,86.80
2018-04-25T20:25:43.117Z,86.70
2018-04-25T20:28:09.243Z,86.40
2018-04-25T20:30:35.426Z,88.10
2018-04-25T20:33:01.628Z,89.50
2018-04-25T20:35:27.724Z,88.70
2018-04-25T20:37:54.612Z,90.00
2018-04-25T20:40:20.705Z,90.00
2018-04-25T20:42:46.804Z,91.20
2018-04-25T20:45:12.879Z,92.50
2018-04-25T20:47:39.035Z,93.00
2018-04-25T20:50:05.845Z,91.80
2018-04-25T20:52:31.978Z,91.80
2018-04-25T20:54:58.310Z,92.20
2018-04-25T20:57:24.651Z,90.80
2018-04-25T20:59:50.826Z,89.80
2018-04-25T21:02:16.928Z,90.10
2018-04-25T21:04:43.053Z,90.40
2018-04-25T21:07:09.181Z,89.50
2018-04-25T21:09:35.319Z,90.00
2018-04-25T21:12:01.446Z,89.00
2018-04-25T21:14:28.293Z,89.90
2018-04-25T21:16:54.399Z,89.90
2018-04-25T21:19:20.475Z,90.70
2018-04-25T21:21:47.411Z,88.90
2018-04-25T21:24:13.507Z,88.80
2018-04-25T21:26:39.598Z,89.80
2018-04-25T21:29:05.734Z,89.10
2018-04-25T21:31:31.846Z,89.40
2018-04-25T21:33:57.943Z,88.40
2018-04-25T21:36:24.131Z,89.80
2018-04-25T21:38:50.299Z,89.20
2018-04-25T21:41:17.291Z,89.40
2018-04-25T21:43:43.461Z,89.40
2018-04-25T21:46:09.567Z,91.90
2018-04-25T21:48:35.650Z,91.40
2018-04-25T21:51:01.812Z,91.70
2018-04-25T21:53:28.702Z,91.20
2018-04-25T21:55:54.771Z,91.20
2018-04-25T21:58:20.887Z,91.20
2018-04-25T22:00:46.976Z,92.30
2018-04-25T22:03:13.803Z,93.50
2018-04-25T22:05:39.915Z,93.50
2018-04-25T22:08:06.032Z,94.30
2018-04-25T22:10:32.112Z,95.00
2018-04-25T22:12:58.272Z,95.10
2018-04-25T22:15:24.366Z,96.30
2018-04-25T22:17:50.456Z,98.00
2018-04-25T22:20:16.571Z,97.20
2018-04-25T22:22:42.661Z,96.70
2018-04-25T22:25:08.726Z,98.00
2018-04-25T22:27:34.837Z,97.90
2018-04-25T22:30:00.911Z,98.70
2018-04-25T22:32:26.999Z,99.00
2018-04-25T22:34:53.116Z,99.70
2018-04-25T22:37:19.932Z,99.90
2018-04-25T22:39:46.039Z,99.30
2018-04-25T22:42:12.129Z,99.60
2018-04-25T22:44:38.201Z,98.60
2018-04-25T22:47:04.989Z,99.30
2018-04-25T22:49:31.086Z,99.10
2018-04-25T22:51:57.903Z,97.90
2018-04-25T22:54:23.970Z,97.90
2018-04-25T22:56:50.798Z,97.30
2018-04-25T22:59:17.099Z,97.40
2018-04-25T23:01:43.971Z,99.00
2018-04-25T23:04:10.087Z,98.20
2018-04-25T23:06:36.211Z,99.00
2018-04-25T23:09:03.102Z,98.60
2018-04-25T23:11:29.194Z,98.50
2018-04-25T23:13:56.082Z,99.50
2018-04-25T23:16:22.254Z,99.50
2018-04-25T23:18:48.430Z,99.90
2018-04-25T23:21:15.337Z,99.90
2018-04-25T23:23:41.456Z,99.90
2018-04-25T23:26:07.532Z,99.90
2018-04-25T23:28:33.734Z,99.90
2018-04-25T23:30:59.927Z,99.90
2018-04-25T23:33:26.821Z,99.90
2018-04-25T23:35:52.984Z,99.90
2018-04-25T23:38:19.078Z,99.60
2018-04-25T23:40:45.969Z,99.90
2018-04-25T23:43:12.095Z,99.90
2018-04-25T23:45:38.232Z,99.20
2018-04-25T23:48:04.408Z,98.90
2018-04-25T23:50:30.536Z,98.50
2018-04-25T23:52:56.642Z,99.50
2018-04-25T23:55:22.903Z,99.90
2018-04-25T23:57:49.078Z,99.90
